Terminal Aerodrome Forecast
Issued by NWS

Home | Current Version | Previous Version | Text Only | Print | Product List | Glossary On
Versions: 1 2 3 4 5 6 7 8 9 10 11 12 13 14 15 16 17 18 19 20 21 22
090
FTUS43 KGLD 221543 AAB
TAFMCK
TAF AMD
KMCK 221543Z 2216/2312 12007KT 3SM -RA OVC010
      TEMPO 2216/2218 2SM -RA BR OVC005
     FM221800 13015G20KT P6SM -DZ VCSH OVC008
     FM222000 12015G20KT P6SM OVC008
     FM230200 12015G25KT 3SM BR VCSH OVC008=

USA.gov is the U.S. government's official web portal to all federal, state and local government web resources and services.